Time;durP1;ratioP1;P1;durP2;ratioP2;P2;SDS_P1;SDS_P2;PMS_P1;PMS_P2;Temp;Humidity;BMP_temperature;BMP_pressure;BME280_temperature;BME280_humidity;BME280_pressure;Samples;Min_cycle;Max_cycle;Signal;HPM_P1;HPM_P2
2021/03/26 00:01:56;;;;;;;45.28;7.85;;;;;;;11.20;100.00;101550.22;5051772;28;20044;-68
2021/03/26 00:05:04;;;;;;;46.67;6.43;;;;;;;11.20;100.00;101564.72;5051412;28;20806;-67
2021/03/26 00:07:30;;;;;;;53.15;6.72;;;;;;;11.21;100.00;101540.94;5051183;28;20035;-66
2021/03/26 00:09:56;;;;;;;59.38;8.23;;;;;;;11.21;100.00;101557.34;5051457;28;20124;-67
2021/03/26 00:12:21;;;;;;;44.55;7.50;;;;;;;11.23;100.00;101547.03;5051543;28;20068;-67
2021/03/26 00:14:47;;;;;;;53.17;6.78;;;;;;;11.22;100.00;101551.66;5051313;28;20037;-67
2021/03/26 00:17:12;;;;;;;39.00;6.45;;;;;;;11.22;100.00;101553.56;5051321;28;20110;-67
2021/03/26 00:19:38;;;;;;;46.80;7.35;;;;;;;11.20;100.00;101547.50;5051177;28;20047;-67
2021/03/26 00:22:04;;;;;;;57.30;7.00;;;;;;;11.18;100.00;101534.88;5051170;28;20055;-67
2021/03/26 00:28:10;;;;;;;52.65;7.50;;;;;;;11.17;100.00;101516.81;5051110;28;20561;-68
2021/03/26 00:30:36;;;;;;;47.10;6.90;;;;;;;11.18;100.00;101529.41;5051228;28;20048;-66
2021/03/26 00:33:04;;;;;;;44.25;6.75;;;;;;;11.17;100.00;101516.81;5051055;28;20106;-67
2021/03/26 00:35:31;;;;;;;45.08;7.88;;;;;;;11.20;100.00;101531.09;5050980;28;20433;-66
2021/03/26 00:37:57;;;;;;;54.50;9.18;;;;;;;11.18;100.00;101529.41;5050931;28;20494;-67
2021/03/26 00:40:24;;;;;;;53.25;7.85;;;;;;;11.18;100.00;101526.69;5050937;28;20045;-67
2021/03/26 00:42:50;;;;;;;50.63;7.28;;;;;;;11.20;100.00;101522.88;5050982;28;20056;-66
2021/03/26 00:45:29;;;;;;;56.78;7.68;;;;;;;11.20;100.00;101514.69;5050899;28;20036;-67
2021/03/26 00:47:55;;;;;;;46.20;6.72;;;;;;;11.18;100.00;101496.59;5051045;28;20518;-67
2021/03/26 00:50:24;;;;;;;39.70;7.55;;;;;;;11.20;100.00;101520.16;5050993;28;20483;-67
2021/03/26 00:52:50;;;;;;;48.90;8.20;;;;;;;11.17;100.00;101511.34;5050754;28;20487;-67
2021/03/26 00:55:16;;;;;;;60.67;7.75;;;;;;;11.16;100.00;101509.66;5050673;28;20044;-67
2021/03/26 00:57:42;;;;;;;44.80;7.57;;;;;;;11.16;100.00;101497.91;5050625;28;20440;-67
2021/03/26 01:00:12;;;;;;;57.38;7.03;;;;;;;11.16;100.00;101498.72;5050867;28;20037;-67
2021/03/26 01:02:38;;;;;;;57.67;8.02;;;;;;;11.14;100.00;101494.56;5050880;28;20044;-67
2021/03/26 01:05:10;;;;;;;46.72;7.22;;;;;;;11.15;100.00;101496.25;5050656;28;20495;-67
2021/03/26 01:07:36;;;;;;;45.85;6.85;;;;;;;11.13;100.00;101480.06;5053333;28;20033;-66
2021/03/26 01:10:06;;;;;;;48.20;6.40;;;;;;;11.15;100.00;101485.31;5055228;28;20514;-66
2021/03/26 01:12:31;;;;;;;56.50;7.22;;;;;;;11.14;100.00;101472.69;5054658;28;20047;-67
2021/03/26 01:14:57;;;;;;;62.08;7.70;;;;;;;11.14;100.00;101473.53;5054680;28;20041;-66
2021/03/26 01:17:23;;;;;;;45.95;7.15;;;;;;;11.16;100.00;101465.94;5054740;28;20398;-67
2021/03/26 01:19:48;;;;;;;57.55;8.45;;;;;;;11.16;100.00;101460.47;5054666;28;20463;-67
2021/03/26 01:22:14;;;;;;;54.70;7.45;;;;;;;11.16;100.00;101460.47;5054575;28;20041;-67
2021/03/26 01:24:40;;;;;;;51.58;7.07;;;;;;;11.15;100.00;101460.69;5054451;28;20506;-67
2021/03/26 01:27:06;;;;;;;54.10;7.03;;;;;;;11.15;100.00;101458.78;5054408;28;20472;-67
2021/03/26 01:29:31;;;;;;;51.10;7.03;;;;;;;11.15;100.00;101441.56;5052977;28;20053;-67
2021/03/26 01:31:57;;;;;;;54.92;8.20;;;;;;;11.15;100.00;101460.69;5054559;28;20041;-66
2021/03/26 01:34:23;;;;;;;48.67;6.70;;;;;;;11.13;100.00;101444.53;5054302;28;20479;-67
2021/03/26 01:36:50;;;;;;;45.63;8.32;;;;;;;11.14;100.00;101451.66;5054827;28;20029;-68
2021/03/26 01:39:16;;;;;;;43.70;7.15;;;;;;;11.14;100.00;101446.19;5054212;28;20036;-66
2021/03/26 01:41:45;;;;;;;43.13;7.30;;;;;;;11.15;100.00;101441.56;5054230;28;20032;-67
2021/03/26 01:44:12;;;;;;;61.22;7.28;;;;;;;11.14;100.00;101418.84;5054117;28;20025;-67
2021/03/26 01:46:39;;;;;;;41.20;7.43;;;;;;;11.15;100.00;101422.41;5054124;28;20036;-68
2021/03/26 01:49:07;;;;;;;47.22;7.20;;;;;;;11.16;100.00;101415.88;5054176;28;20045;-68
2021/03/26 01:51:37;;;;;;;52.45;7.35;;;;;;;11.15;100.00;101425.97;5054125;28;20036;-66
2021/03/26 01:54:05;;;;;;;59.17;8.10;;;;;;;11.16;100.00;101411.25;5053904;28;20071;-66
2021/03/26 01:56:31;;;;;;;43.40;7.72;;;;;;;11.15;100.00;101415.03;5054292;28;20395;-66
2021/03/26 01:58:56;;;;;;;57.42;8.02;;;;;;;11.15;100.00;101393.19;5052690;28;20041;-66
2021/03/26 02:01:36;;;;;;;49.63;6.97;;;;;;;11.16;100.00;101418.63;5053967;28;20037;-67
2021/03/26 02:04:05;;;;;;;55.67;7.75;;;;;;;11.15;100.00;101393.19;5054091;28;20058;-66
2021/03/26 02:06:38;;;;;;;48.92;7.88;;;;;;;11.13;100.00;101389.84;5053936;28;20033;-66
2021/03/26 02:09:15;;;;;;;48.20;8.07;;;;;;;11.10;100.00;101362.94;5054086;28;20037;-68
2021/03/26 02:11:50;;;;;;;48.38;7.05;;;;;;;11.08;100.00;101403.34;5054009;28;20033;-65
2021/03/26 02:14:20;;;;;;;48.35;6.82;;;;;;;11.07;100.00;101390.75;5053896;28;20029;-66
2021/03/26 02:16:48;;;;;;;44.85;6.35;;;;;;;11.02;100.00;101382.41;5053892;28;20037;-66
2021/03/26 02:19:27;;;;;;;43.25;7.00;;;;;;;11.00;100.00;101368.16;5053719;28;20064;-66
2021/03/26 02:21:53;;;;;;;31.92;6.13;;;;;;;10.98;100.00;101370.28;5053935;28;20052;-66
2021/03/26 02:24:19;;;;;;;39.10;5.85;;;;;;;10.95;100.00;101354.34;5053792;28;20052;-67
2021/03/26 02:26:50;;;;;;;38.38;5.07;;;;;;;10.95;100.00;101350.78;5053674;28;20450;-66
2021/03/26 02:29:24;;;;;;;29.30;4.80;;;;;;;10.94;100.00;101357.31;5053394;28;20103;-67
2021/03/26 02:31:59;;;;;;;34.63;4.68;;;;;;;10.91;100.00;101353.13;5053537;28;20033;-65
2021/03/26 02:34:26;;;;;;;34.20;4.70;;;;;;;10.89;100.00;101341.59;5053379;28;20044;-67
2021/03/26 02:37:05;;;;;;;29.33;4.65;;;;;;;10.87;100.00;101338.28;5053506;28;20403;-68
2021/03/26 02:39:36;;;;;;;34.33;5.70;;;;;;;10.88;100.00;101342.66;5053236;28;20531;-66
2021/03/26 02:42:06;;;;;;;42.00;5.88;;;;;;;10.88;100.00;101338.03;5053344;28;20487;-67
2021/03/26 02:44:48;;;;;;;36.17;5.10;;;;;;;10.88;100.00;101337.19;5053026;28;20041;-66
2021/03/26 02:47:25;;;;;;;30.27;5.07;;;;;;;10.89;100.00;101338.88;5053018;28;20045;-66
2021/03/26 02:49:59;;;;;;;45.42;6.05;;;;;;;10.89;100.00;101327.94;5051600;28;20426;-67
2021/03/26 02:52:32;;;;;;;31.10;5.80;;;;;;;10.88;100.00;101316.19;5053024;28;20060;-67
2021/03/26 02:55:07;;;;;;;42.83;5.45;;;;;;;10.89;100.00;101314.28;5052903;28;20037;-66
2021/03/26 02:57:43;;;;;;;44.88;5.80;;;;;;;10.91;100.00;101309.41;5052853;28;20420;-67
2021/03/26 03:00:24;;;;;;;40.67;5.97;;;;;;;10.88;100.00;101301.69;5052818;28;20525;-66
2021/03/26 03:02:52;;;;;;;51.13;5.85;;;;;;;10.88;100.00;101301.69;5051456;28;20531;-67
2021/03/26 03:05:30;;;;;;;39.53;6.07;;;;;;;10.89;100.00;101306.06;5052607;28;20037;-67
2021/03/26 03:08:12;;;;;;;34.30;5.00;;;;;;;10.93;100.00;101300.97;5052581;28;20395;-65
2021/03/26 03:10:44;;;;;;;49.13;6.10;;;;;;;10.96;100.00;101309.56;5052763;28;20468;-67
2021/03/26 03:13:13;;;;;;;45.95;6.15;;;;;;;10.98;100.00;101304.69;5052449;28;20056;-67
2021/03/26 03:15:47;;;;;;;46.00;6.63;;;;;;;11.00;100.00;101283.41;5052619;28;20033;-67
2021/03/26 03:18:25;;;;;;;54.30;7.18;;;;;;;11.01;100.00;101282.34;5052534;28;20033;-66
2021/03/26 03:21:35;;;;;;;61.63;8.48;;;;;;;11.04;100.00;101281.88;5052357;28;20090;-67
2021/03/26 03:24:07;;;;;;;50.88;8.60;;;;;;;11.03;100.00;101250.16;5052870;28;20041;-66
2021/03/26 03:26:52;;;;;;;45.83;6.50;;;;;;;11.04;100.00;101276.41;5052421;28;20033;-65
2021/03/26 03:29:45;;;;;;;49.60;6.97;;;;;;;11.01;100.00;101271.41;5051526;28;20488;-66
2021/03/26 03:32:18;;;;;;;44.15;6.80;;;;;;;10.99;100.00;101254.44;5052235;28;20033;-66
2021/03/26 03:35:16;;;;;;;45.53;7.15;;;;;;;10.98;100.00;101260.97;5052041;28;20119;-67
2021/03/26 03:38:08;;;;;;;43.67;7.88;;;;;;;10.95;100.00;101247.78;5069254;28;20040;-66
2021/03/26 03:40:43;;;;;;;39.88;6.88;;;;;;;10.92;100.00;101241.91;5059898;28;20507;-67
2021/03/26 03:43:23;;;;;;;43.72;8.20;;;;;;;10.87;100.00;101240.72;5051944;28;20057;-66
2021/03/26 03:46:03;;;;;;;50.03;6.68;;;;;;;10.83;100.00;101235.97;5051962;28;20033;-67
2021/03/26 03:48:55;;;;;;;52.33;7.10;;;;;;;10.79;100.00;101246.53;5050520;28;20120;-66
2021/03/26 03:51:27;;;;;;;45.60;6.88;;;;;;;10.76;100.00;101235.22;5051764;28;20083;-66
2021/03/26 03:54:09;;;;;;;44.40;5.90;;;;;;;10.72;100.00;101234.03;5051676;28;20500;-66
2021/03/26 03:56:45;;;;;;;45.63;7.15;;;;;;;10.70;100.00;101241.63;5051709;28;20044;-66
2021/03/26 03:59:41;;;;;;;36.65;6.18;;;;;;;10.66;100.00;101233.06;5051703;28;20041;-65
2021/03/26 04:02:23;;;;;;;41.85;7.88;;;;;;;10.64;100.00;101226.19;5051326;28;20060;-67
2021/03/26 04:05:09;;;;;;;35.45;7.43;;;;;;;10.64;100.00;101226.19;5051632;28;20568;-67
2021/03/26 04:07:45;;;;;;;46.17;6.05;;;;;;;10.65;100.00;101233.31;5051392;28;20079;-65
2021/03/26 04:10:14;;;;;;;35.10;6.47;;;;;;;10.65;100.00;101225.94;5051442;28;20036;-66
2021/03/26 04:12:44;;;;;;;34.42;5.50;;;;;;;10.66;100.00;101207.66;5051375;28;20036;-68
2021/03/26 04:15:28;;;;;;;45.17;6.55;;;;;;;10.69;100.00;101229.03;5051488;28;20556;-67
2021/03/26 04:17:57;;;;;;;51.10;7.10;;;;;;;10.70;100.00;101219.78;5051282;28;20367;-66
2021/03/26 04:20:32;;;;;;;53.40;8.23;;;;;;;10.72;100.00;101223.94;5051465;28;20671;-67
2021/03/26 04:23:05;;;;;;;52.80;7.47;;;;;;;10.75;100.00;101217.16;5051240;28;20103;-66
2021/03/26 04:25:35;;;;;;;48.40;7.88;;;;;;;10.77;100.00;101226.00;5051218;28;20064;-66
2021/03/26 04:28:07;;;;;;;47.03;8.57;;;;;;;10.79;100.00;101212.91;5050860;28;20088;-67
2021/03/26 04:30:41;;;;;;;57.60;7.47;;;;;;;10.79;100.00;101210.19;5051193;28;20487;-66
2021/03/26 04:33:07;;;;;;;;;;;;;;;10.80;100.00;101192.72;5051507;28;20487;-66
2021/03/26 04:35:33;;;;;;;40.33;5.93;;;;;;;10.81;100.00;101199.84;5051120;28;20007;-68
2021/03/26 04:38:23;;;;;;;49.08;8.10;;;;;;;10.80;100.00;101192.72;5051020;28;20033;-67
2021/03/26 04:41:18;;;;;;;47.80;7.45;;;;;;;10.80;100.00;101181.78;5050156;28;20411;-67
2021/03/26 04:43:54;;;;;;;44.25;7.05;;;;;;;10.78;100.00;101183.94;5052082;28;20051;-65
2021/03/26 04:46:29;;;;;;;49.50;7.30;;;;;;;10.78;100.00;101194.88;5050989;28;20387;-67
2021/03/26 04:49:20;;;;;;;42.75;6.80;;;;;;;10.77;100.00;101171.34;5050841;28;20044;-66
2021/03/26 04:51:56;;;;;;;50.28;7.90;;;;;;;10.76;100.00;101186.03;5050849;28;20040;-67
2021/03/26 04:54:39;;;;;;;46.65;7.43;;;;;;;10.76;100.00;101165.06;5050751;28;20479;-67
2021/03/26 04:57:21;;;;;;;43.57;7.57;;;;;;;10.76;100.00;101186.03;5051228;28;20037;-67
2021/03/26 05:00:00;;;;;;;44.58;7.20;;;;;;;10.76;100.00;101175.13;5050714;28;20029;-67
2021/03/26 05:02:29;;;;;;;39.33;7.75;;;;;;;10.77;100.00;101165.88;5050810;28;20033;-67
2021/03/26 05:04:55;;;;;;;47.22;6.97;;;;;;;10.78;100.00;101168.38;5050656;28;20041;-66
2021/03/26 05:07:31;;;;;;;44.17;7.82;;;;;;;10.76;100.00;101148.66;5050563;28;20041;-66
2021/03/26 05:10:01;;;;;;;44.50;6.75;;;;;;;10.75;100.00;101127.00;5050733;28;20360;-66
2021/03/26 05:12:33;;;;;;;53.38;8.77;;;;;;;10.75;100.00;101130.56;5050600;28;20064;-66
2021/03/26 05:15:08;;;;;;;45.30;8.68;;;;;;;10.75;100.00;101148.88;5050449;28;20035;-66
2021/03/26 05:17:41;;;;;;;55.70;7.38;;;;;;;10.76;100.00;101150.53;5050534;28;20032;-66
2021/03/26 05:20:22;;;;;;;49.45;7.60;;;;;;;10.74;100.00;101139.00;5050552;28;20033;-67
2021/03/26 05:23:09;;;;;;;57.80;8.43;;;;;;;10.75;100.00;101127.00;5050546;28;20037;-66
2021/03/26 05:25:41;;;;;;;45.88;7.85;;;;;;;10.75;100.00;101132.47;5050519;28;20086;-65
2021/03/26 05:28:11;;;;;;;49.83;7.80;;;;;;;10.76;100.00;101142.31;5050247;28;20423;-66
2021/03/26 05:30:41;;;;;;;52.33;8.90;;;;;;;10.76;100.00;101126.81;5050347;28;20567;-65
2021/03/26 05:33:15;;;;;;;52.97;8.90;;;;;;;10.77;100.00;101138.56;5050250;28;20033;-66
2021/03/26 05:35:55;;;;;;;50.47;7.22;;;;;;;10.77;100.00;101125.72;5050443;28;20037;-67
2021/03/26 05:38:31;;;;;;;47.63;6.53;;;;;;;10.78;100.00;101121.09;5050512;28;20037;-66
2021/03/26 05:41:09;;;;;;;50.85;8.15;;;;;;;10.79;100.00;101120.03;5050412;28;20033;-66
2021/03/26 05:43:37;;;;;;;49.00;8.68;;;;;;;10.77;100.00;101119.44;5050293;28;20033;-66
2021/03/26 05:46:09;;;;;;;61.00;8.95;;;;;;;10.77;100.00;101116.69;5050482;28;20432;-66
2021/03/26 05:48:53;;;;;;;63.60;8.68;;;;;;;10.78;100.00;101085.56;5050201;28;20039;-66
2021/03/26 05:51:47;;;;;;;51.75;8.10;;;;;;;10.76;100.00;101104.94;5050347;28;20033;-66
2021/03/26 05:54:21;;;;;;;49.33;7.38;;;;;;;10.76;100.00;101090.41;5053654;28;20060;-66
2021/03/26 05:57:03;;;;;;;;;;;;;;;10.76;100.00;101112.28;5054456;28;20487;-68
2021/03/26 05:59:40;;;;;;;47.90;8.15;;;;;;;10.74;100.00;101078.91;5053934;28;19970;-67
2021/03/26 06:02:39;;;;;;;47.92;7.72;;;;;;;10.74;100.00;101096.13;5053773;28;20047;-66
2021/03/26 06:05:39;;;;;;;47.15;7.25;;;;;;;10.74;100.00;101077.00;5053839;28;20037;-65
2021/03/26 06:08:41;;;;;;;51.92;8.15;;;;;;;10.74;100.00;101090.66;5053893;28;20431;-67
2021/03/26 06:11:18;;;;;;;50.25;8.52;;;;;;;10.76;100.00;101087.69;5053788;28;20083;-65
2021/03/26 06:13:47;;;;;;;48.50;7.97;;;;;;;10.76;100.00;101072.16;5053694;28;20144;-66
2021/03/26 06:16:31;;;;;;;53.78;8.25;;;;;;;10.78;100.00;101075.47;5053650;28;20036;-67
2021/03/26 06:19:20;;;;;;;51.47;9.00;;;;;;;10.81;100.00;101055.03;5053530;28;20557;-66
2021/03/26 06:22:00;;;;;;;51.60;9.13;;;;;;;10.81;100.00;101063.22;5053527;28;20560;-66
2021/03/26 06:24:54;;;;;;;62.95;9.15;;;;;;;10.82;100.00;101070.38;5053548;28;20134;-67
2021/03/26 06:27:41;;;;;;;52.55;8.00;;;;;;;10.83;100.00;101040.06;5053161;28;20036;-66
2021/03/26 06:30:12;;;;;;;53.33;9.20;;;;;;;10.86;100.00;101052.41;5053691;28;20055;-66
2021/03/26 06:32:52;;;;;;;70.30;10.75;;;;;;;10.85;100.00;101054.31;5053321;28;20041;-66
2021/03/26 06:35:34;;;;;;;53.55;9.93;;;;;;;10.83;100.00;101044.69;5053663;28;20166;-66
2021/03/26 06:38:18;;;;;;;69.88;10.23;;;;;;;10.83;100.00;101044.69;5053184;28;20082;-67
2021/03/26 06:41:04;;;;;;;66.68;10.98;;;;;;;10.82;100.00;101035.66;5053470;28;20429;-66
2021/03/26 06:43:54;;;;;;;62.40;10.43;;;;;;;10.80;100.00;101039.72;5053092;28;20043;-66
2021/03/26 06:46:45;;;;;;;63.10;9.77;;;;;;;10.80;100.00;101042.44;5053146;28;20033;-65
2021/03/26 06:49:28;;;;;;;73.03;9.38;;;;;;;10.78;100.00;101034.50;5052929;28;20033;-66
2021/03/26 06:52:34;;;;;;;62.30;10.90;;;;;;;10.79;100.00;101021.66;5053006;28;20033;-66
2021/03/26 06:55:06;;;;;;;64.10;9.45;;;;;;;10.78;100.00;101030.94;5052873;28;20057;-67
2021/03/26 06:57:43;;;;;;;66.00;8.88;;;;;;;10.79;100.00;101021.66;5052833;28;20551;-67
2021/03/26 07:00:21;;;;;;;58.67;8.25;;;;;;;10.80;100.00;101015.13;5052895;28;20037;-65
2021/03/26 07:03:05;;;;;;;53.80;7.63;;;;;;;10.79;100.00;101006.09;5052857;28;20455;-66
2021/03/26 07:05:39;;;;;;;55.47;9.93;;;;;;;10.82;100.00;101021.19;5051898;28;20024;-66
2021/03/26 07:08:42;;;;;;;63.97;9.60;;;;;;;10.82;100.00;101027.47;5052568;28;20278;-66
2021/03/26 07:11:16;;;;;;;37.78;7.97;;;;;;;10.85;100.00;101009.75;5052546;28;20510;-67
2021/03/26 07:14:22;;;;;;;46.43;9.70;;;;;;;10.87;100.00;101040.41;5052483;28;20033;-66
2021/03/26 07:17:20;;;;;;;50.80;8.98;;;;;;;10.88;100.00;101031.13;5052595;28;20274;-66
2021/03/26 07:20:23;;;;;;;60.78;10.82;;;;;;;10.84;100.00;101024.50;5053218;28;20049;-66
2021/03/26 07:23:29;;;;;;;67.65;9.43;;;;;;;10.83;100.00;101028.31;5052374;28;20507;-66
2021/03/26 07:26:12;;;;;;;86.50;11.23;;;;;;;10.79;100.00;101011.56;5052324;28;20071;-67
2021/03/26 07:29:30;;;;;;;70.22;9.93;;;;;;;10.75;100.00;100965.81;5052021;28;20044;-68
2021/03/26 07:32:22;;;;;;;61.20;9.23;;;;;;;10.70;100.00;101004.78;5058753;28;20449;-66
2021/03/26 07:35:16;;;;;;;68.35;10.48;;;;;;;10.67;100.00;101009.91;5052285;28;20115;-66
2021/03/26 07:38:07;;;;;;;71.72;11.40;;;;;;;10.64;100.00;101003.03;5052059;28;20041;-67
2021/03/26 07:41:06;;;;;;;58.90;8.60;;;;;;;10.65;100.00;101020.25;5052120;28;20037;-66
2021/03/26 07:43:41;;;;;;;61.53;10.02;;;;;;;10.61;100.00;101010.88;5051905;28;20048;-68
2021/03/26 07:46:20;;;;;;;54.28;8.05;;;;;;;10.57;100.00;101024.16;5051971;28;20033;-65
2021/03/26 07:48:49;;;;;;;50.90;7.35;;;;;;;10.49;100.00;101021.78;5052073;28;20444;-66
2021/03/26 07:51:28;;;;;;;42.30;6.55;;;;;;;10.39;100.00;101057.84;5051865;28;20043;-67
2021/03/26 07:54:13;;;;;;;24.75;5.13;;;;;;;10.27;100.00;101029.72;5051710;28;20032;-66
2021/03/26 07:56:53;;;;;;;;;;;;;;;10.12;100.00;101037.50;5052238;28;20040;-66
2021/03/26 07:59:41;;;;;;;22.80;3.95;;;;;;;10.06;100.00;101038.41;5051635;28;19916;-66
2021/03/26 08:02:32;;;;;;;20.52;3.03;;;;;;;10.05;100.00;101050.41;5051693;28;20068;-66
2021/03/26 08:05:16;;;;;;;17.35;2.90;;;;;;;9.95;100.00;101060.00;5051586;28;20049;-66
2021/03/26 08:07:58;;;;;;;24.27;3.03;;;;;;;9.95;100.00;101049.09;5051661;28;20076;-66
2021/03/26 08:10:34;;;;;;;19.05;2.95;;;;;;;9.94;100.00;101061.06;5051540;28;20123;-67
2021/03/26 08:13:05;;;;;;;23.00;3.28;;;;;;;9.94;100.00;101061.06;5051492;28;20025;-66
2021/03/26 08:15:43;;;;;;;18.73;3.03;;;;;;;9.85;100.00;101058.88;5051254;28;20394;-67
2021/03/26 08:18:27;;;;;;;10.65;2.13;;;;;;;9.77;100.00;101051.88;5051342;28;20037;-66
2021/03/26 08:21:18;;;;;;;12.48;2.08;;;;;;;9.83;100.00;101055.56;5051302;28;20032;-67
2021/03/26 08:23:44;;;;;;;12.13;2.97;;;;;;;9.87;100.00;101071.22;5051124;28;20029;-66
2021/03/26 08:26:22;;;;;;;14.82;2.20;;;;;;;9.84;100.00;101074.44;5051204;28;20127;-65
2021/03/26 08:28:59;;;;;;;14.38;2.72;;;;;;;9.85;100.00;101070.63;5051273;28;20522;-66
2021/03/26 08:31:27;;;;;;;19.88;2.70;;;;;;;9.87;100.00;101090.31;5051187;28;20076;-65
2021/03/26 08:34:23;;;;;;;29.83;4.38;;;;;;;9.90;100.00;101089.88;5051042;28;20131;-66
2021/03/26 08:37:07;;;;;;;19.23;2.92;;;;;;;9.89;100.00;101093.69;5051131;28;20041;-66
2021/03/26 08:39:44;;;;;;;17.88;2.80;;;;;;;9.93;100.00;101097.59;5051252;28;20051;-66
2021/03/26 08:42:21;;;;;;;17.92;2.47;;;;;;;9.92;100.00;101104.13;5051064;28;20033;-66
2021/03/26 08:44:56;;;;;;;14.30;2.30;;;;;;;9.93;100.00;101099.50;5050849;28;20033;-65
2021/03/26 08:47:29;;;;;;;11.13;1.52;;;;;;;9.88;100.00;101102.06;5044892;28;20033;-66
2021/03/26 08:50:19;;;;;;;16.90;2.53;;;;;;;9.92;100.00;101115.03;5048867;28;20068;-67
2021/03/26 08:53:04;;;;;;;9.13;1.48;;;;;;;9.92;100.00;101117.78;5041888;28;20061;-66
2021/03/26 08:56:00;;;;;;;20.27;2.45;;;;;;;10.01;100.00;101120.16;5030973;28;20403;-66
2021/03/26 08:58:40;;;;;;;17.55;2.92;;;;;;;10.05;100.00;101115.91;5049501;28;20036;-66
2021/03/26 09:01:38;;;;;;;16.23;2.17;;;;;;;10.06;100.00;101120.28;5050789;28;20028;-64
2021/03/26 09:04:48;;;;;;;17.65;2.20;;;;;;;10.12;100.00;101135.75;5050649;28;20067;-65
2021/03/26 09:07:48;;;;;;;16.80;1.90;;;;;;;10.05;100.00;101124.09;5049674;28;20442;-65
2021/03/26 09:10:14;;;;;;;7.97;1.13;;;;;;;10.05;100.00;101127.66;5035141;28;20040;-65
2021/03/26 09:13:00;;;;;;;20.30;1.67;;;;;;;10.05;100.00;101135.00;5030804;28;20041;-65
2021/03/26 09:15:45;;;;;;;6.80;1.52;;;;;;;9.98;100.00;101135.94;5030699;28;20029;-66
2021/03/26 09:18:24;;;;;;;6.88;1.25;;;;;;;10.03;100.00;101153.50;5030598;28;20034;-67
2021/03/26 09:20:50;;;;;;;8.70;1.30;;;;;;;10.11;100.00;101156.75;5030545;28;20029;-69
2021/03/26 09:23:39;;;;;;;7.43;1.35;;;;;;;10.15;100.00;101157.97;5030344;28;20575;-64
2021/03/26 09:26:30;;;;;;;12.05;2.15;;;;;;;10.13;100.00;101164.72;5034519;28;20052;-67
2021/03/26 09:29:03;;;;;;;11.23;1.20;;;;;;;10.11;100.00;101150.47;5036704;28;20498;-66
2021/03/26 09:31:41;;;;;;;4.95;0.90;;;;;;;10.06;100.00;101156.59;5034452;28;20103;-65
2021/03/26 09:34:22;;;;;;;13.98;1.48;;;;;;;9.94;100.00;101167.47;5045284;28;20434;-67
2021/03/26 09:37:17;;;;;;;6.35;0.73;;;;;;;9.89;100.00;101181.00;5034507;28;20048;-66
2021/03/26 09:39:44;;;;;;;;;;;;;;;9.85;100.00;101185.22;5051898;28;20453;-66
2021/03/26 09:42:44;;;;;;;3.95;1.25;;;;;;;9.67;100.00;101182.50;5037018;28;19917;-66
2021/03/26 09:45:40;;;;;;;5.95;0.90;;;;;;;9.66;100.00;101197.19;5035271;28;20049;-65
2021/03/26 09:48:40;;;;;;;5.22;1.15;;;;;;;9.65;100.00;101190.91;5034210;28;20037;-65
2021/03/26 09:51:21;;;;;;;5.97;0.63;;;;;;;9.72;100.00;101196.31;5037594;28;20482;-66
2021/03/26 09:53:48;;;;;;;3.92;1.40;;;;;;;9.81;100.00;101200.38;5054078;28;20890;-64
2021/03/26 09:56:38;;;;;;;5.82;1.42;;;;;;;9.85;100.00;101207.03;5054058;28;20044;-66
2021/03/26 09:59:25;;;;;;;5.25;1.02;;;;;;;9.91;100.00;101206.16;5053993;28;20029;-67
2021/03/26 10:02:10;;;;;;;2.38;0.73;;;;;;;10.00;100.00;101220.31;5053722;28;20037;-68
2021/03/26 10:04:50;;;;;;;;;;;;;;;10.02;100.00;101220.06;5041659;28;20121;-66
2021/03/26 10:07:33;;;;;;;4.03;1.20;;;;;;;9.91;100.00;101222.53;5044656;28;20363;-66
2021/03/26 10:13:15;;;;;;;4.80;0.93;;;;;;;9.89;100.00;101213.72;5033776;28;20112;-68
2021/03/26 10:15:45;;;;;;;5.13;0.82;;;;;;;9.83;100.00;101225.53;5047828;28;20033;-67
2021/03/26 10:18:25;;;;;;;6.10;0.90;;;;;;;9.77;100.00;101226.47;5053656;28;20438;-68
2021/03/26 10:21:09;;;;;;;8.25;0.82;;;;;;;9.73;100.00;101213.50;5050220;28;20621;-66
2021/03/26 10:23:37;;;;;;;7.03;1.00;;;;;;;9.77;100.00;101221.00;5053565;28;20037;-66
2021/03/26 10:26:17;;;;;;;10.05;1.13;;;;;;;9.79;100.00;101216.16;5037179;28;20037;-66
2021/03/26 10:28:43;;;;;;;9.68;1.38;;;;;;;9.80;100.00;101226.00;5033217;28;20045;-66
2021/03/26 10:31:31;;;;;;;16.92;2.13;;;;;;;9.82;100.00;101221.16;5050567;28;20171;-66
2021/03/26 10:34:00;;;;;;;10.27;1.70;;;;;;;9.82;100.00;101218.41;5052222;28;20035;-67
2021/03/26 10:36:48;;;;;;;15.35;2.63;;;;;;;9.89;100.00;101224.66;5040705;28;20037;-65
2021/03/26 10:39:19;;;;;;;8.82;1.52;;;;;;;9.98;100.00;101225.16;5036324;28;20036;-68
2021/03/26 10:41:48;;;;;;;8.10;1.48;;;;;;;10.08;100.00;101232.81;5035634;28;20033;-68
2021/03/26 10:44:27;;;;;;;14.38;1.95;;;;;;;10.13;100.00;101224.75;5033070;28;20037;-68
2021/03/26 10:47:16;;;;;;;8.13;1.50;;;;;;;10.19;100.00;101223.84;5051039;28;20364;-66
2021/03/26 10:49:57;;;;;;;10.18;2.42;;;;;;;10.24;100.00;101248.59;5039131;28;20043;-67
2021/03/26 10:52:32;;;;;;;12.90;1.98;;;;;;;10.24;100.00;101254.06;5052936;28;20059;-67
2021/03/26 10:55:12;;;;;;;15.05;2.40;;;;;;;10.29;100.00;101256.91;5051072;28;20039;-67
2021/03/26 10:57:45;;;;;;;16.98;1.95;;;;;;;10.25;100.00;101239.34;5052997;28;20048;-67
2021/03/26 11:00:28;;;;;;;18.83;2.78;;;;;;;10.28;100.00;101244.34;5041354;28;20127;-67
2021/03/26 11:03:06;;;;;;;12.30;1.58;;;;;;;10.36;100.00;101245.91;5052334;28;20033;-67
2021/03/26 11:05:34;;;;;;;14.95;3.25;;;;;;;10.35;100.00;101249.69;5052780;28;20118;-67
2021/03/26 11:08:00;;;;;;;9.90;1.77;;;;;;;10.45;100.00;101259.00;5053071;28;20025;-67
2021/03/26 11:10:43;;;;;;;15.05;2.75;;;;;;;10.60;100.00;101244.13;5052533;28;20056;-67
2021/03/26 11:13:11;;;;;;;14.85;2.90;;;;;;;10.78;100.00;101238.59;5052146;28;20544;-66
2021/03/26 11:15:38;;;;;;;13.93;1.98;;;;;;;10.94;100.00;101237.91;5032586;28;20132;-67
2021/03/26 11:18:29;;;;;;;12.68;1.50;;;;;;;11.03;100.00;101231.00;5032977;28;20033;-66
2021/03/26 11:21:03;;;;;;;18.17;2.95;;;;;;;11.14;100.00;101227.47;5035514;28;20040;-67
2021/03/26 11:23:37;;;;;;;15.38;1.88;;;;;;;11.36;100.00;101224.13;5050422;28;20040;-67
2021/03/26 11:26:03;;;;;;;13.13;1.80;;;;;;;11.55;100.00;101216.63;5032302;28;20048;-68
2021/03/26 11:28:43;;;;;;;12.35;2.20;;;;;;;11.83;100.00;101224.13;5033006;28;20041;-66
2021/03/26 11:31:30;;;;;;;13.48;2.05;;;;;;;12.03;100.00;101224.56;5052293;28;20447;-67
2021/03/26 11:34:20;;;;;;;10.00;1.48;;;;;;;11.90;100.00;101222.09;5046612;28;20063;-67
2021/03/26 11:36:49;;;;;;;17.67;2.30;;;;;;;12.22;100.00;101228.78;5035348;28;20036;-67
2021/03/26 11:39:33;;;;;;;13.63;1.73;;;;;;;12.34;100.00;101199.44;5042722;28;20412;-65
2021/03/26 11:42:22;;;;;;;13.67;3.23;;;;;;;12.46;100.00;101206.75;5048569;28;20123;-67
2021/03/26 11:45:02;;;;;;;8.73;1.52;;;;;;;12.41;100.00;101209.41;5042072;28;20077;-67
2021/03/26 11:47:28;;;;;;;8.30;1.98;;;;;;;12.58;100.00;101216.59;5035954;28;20065;-68
2021/03/26 11:49:59;;;;;;;15.98;1.88;;;;;;;12.67;100.00;101214.28;5051401;28;20463;-66
2021/03/26 11:52:27;;;;;;;9.73;2.20;;;;;;;12.85;100.00;101222.28;5048108;28;20033;-66
2021/03/26 11:55:05;;;;;;;9.75;1.80;;;;;;;12.41;100.00;101231.31;5032864;28;20033;-68
2021/03/26 11:57:37;;;;;;;15.15;2.17;;;;;;;12.10;100.00;101247.13;5035358;28;20025;-67
2021/03/26 12:00:12;;;;;;;15.02;2.28;;;;;;;11.59;100.00;101237.78;5051546;28;20035;-68
2021/03/26 12:03:01;;;;;;;12.30;2.25;;;;;;;11.22;100.00;101247.31;5036468;28;20460;-68
2021/03/26 12:05:32;;;;;;;7.75;1.58;;;;;;;11.37;100.00;101247.69;5032790;28;20047;-65
2021/03/26 12:08:22;;;;;;;6.97;1.80;;;;;;;11.55;100.00;101246.72;5031972;28;20364;-67